sensor_id;sensor_type;location;lat;lon;timestamp;temperature;humidity
12413;DHT22;13877;18.896;-99.222;2022-10-17T00:02:18;26.40;59.00
12413;DHT22;13877;18.896;-99.222;2022-10-17T00:04:45;26.30;60.00
12413;DHT22;13877;18.896;-99.222;2022-10-17T00:07:13;26.20;61.30
12413;DHT22;13877;18.896;-99.222;2022-10-17T00:09:43;26.00;61.00
12413;DHT22;13877;18.896;-99.222;2022-10-17T00:12:10;25.80;61.70
12413;DHT22;13877;18.896;-99.222;2022-10-17T00:14:37;25.70;62.50
12413;DHT22;13877;18.896;-99.222;2022-10-17T00:17:05;25.60;63.60
12413;DHT22;13877;18.896;-99.222;2022-10-17T00:19:31;25.50;62.90
12413;DHT22;13877;18.896;-99.222;2022-10-17T00:21:58;25.40;64.00
12413;DHT22;13877;18.896;-99.222;2022-10-17T00:24:25;25.50;62.90
12413;DHT22;13877;18.896;-99.222;2022-10-17T00:26:53;25.40;63.00
12413;DHT22;13877;18.896;-99.222;2022-10-17T00:29:20;25.30;62.90
12413;DHT22;13877;18.896;-99.222;2022-10-17T00:31:48;25.30;63.70
12413;DHT22;13877;18.896;-99.222;2022-10-17T00:34:14;25.30;63.90
12413;DHT22;13877;18.896;-99.222;2022-10-17T00:36:41;25.20;64.30
12413;DHT22;13877;18.896;-99.222;2022-10-17T00:39:08;25.20;64.50
12413;DHT22;13877;18.896;-99.222;2022-10-17T00:41:35;25.20;64.90
12413;DHT22;13877;18.896;-99.222;2022-10-17T00:44:53;25.20;64.80
12413;DHT22;13877;18.896;-99.222;2022-10-17T00:46:53;25.20;65.00
12413;DHT22;13877;18.896;-99.222;2022-10-17T00:49:20;25.10;65.50
12413;DHT22;13877;18.896;-99.222;2022-10-17T00:51:53;25.20;65.40
12413;DHT22;13877;18.896;-99.222;2022-10-17T00:54:24;25.20;66.30
12413;DHT22;13877;18.896;-99.222;2022-10-17T00:56:54;25.10;66.60
12413;DHT22;13877;18.896;-99.222;2022-10-17T00:59:21;25.00;66.40
12413;DHT22;13877;18.896;-99.222;2022-10-17T01:01:59;24.80;67.00
12413;DHT22;13877;18.896;-99.222;2022-10-17T01:04:27;24.70;68.00
12413;DHT22;13877;18.896;-99.222;2022-10-17T01:06:53;24.60;68.00
12413;DHT22;13877;18.896;-99.222;2022-10-17T01:09:44;24.50;68.30
12413;DHT22;13877;18.896;-99.222;2022-10-17T01:34:47;24.30;71.00
12413;DHT22;13877;18.896;-99.222;2022-10-17T01:37:28;24.30;70.80
12413;DHT22;13877;18.896;-99.222;2022-10-17T01:40:07;24.30;70.60
12413;DHT22;13877;18.896;-99.222;2022-10-17T01:42:52;24.20;70.70
12413;DHT22;13877;18.896;-99.222;2022-10-17T01:48:17;24.40;69.90
12413;DHT22;13877;18.896;-99.222;2022-10-17T01:50:57;24.50;69.50
12413;DHT22;13877;18.896;-99.222;2022-10-17T01:53:32;24.60;69.60
12413;DHT22;13877;18.896;-99.222;2022-10-17T01:56:02;24.60;69.80
12413;DHT22;13877;18.896;-99.222;2022-10-17T01:58:46;24.60;69.80
12413;DHT22;13877;18.896;-99.222;2022-10-17T02:01:15;24.50;70.70
12413;DHT22;13877;18.896;-99.222;2022-10-17T02:03:44;24.40;69.60
12413;DHT22;13877;18.896;-99.222;2022-10-17T02:06:12;24.40;70.20
12413;DHT22;13877;18.896;-99.222;2022-10-17T02:11:15;24.20;70.90
12413;DHT22;13877;18.896;-99.222;2022-10-17T02:14:21;24.20;71.80
12413;DHT22;13877;18.896;-99.222;2022-10-17T02:17:20;24.00;72.30
12413;DHT22;13877;18.896;-99.222;2022-10-17T02:20:08;24.00;72.80
12413;DHT22;13877;18.896;-99.222;2022-10-17T02:22:41;23.90;73.10
12413;DHT22;13877;18.896;-99.222;2022-10-17T02:30:40;23.80;74.30
12413;DHT22;13877;18.896;-99.222;2022-10-17T02:33:32;23.80;73.80
12413;DHT22;13877;18.896;-99.222;2022-10-17T02:36:06;23.70;74.90
12413;DHT22;13877;18.896;-99.222;2022-10-17T02:38:34;23.50;75.20
12413;DHT22;13877;18.896;-99.222;2022-10-17T02:41:03;23.50;75.10
12413;DHT22;13877;18.896;-99.222;2022-10-17T02:43:31;23.50;75.70
12413;DHT22;13877;18.896;-99.222;2022-10-17T02:45:58;23.30;76.60
12413;DHT22;13877;18.896;-99.222;2022-10-17T02:48:27;23.10;76.50
12413;DHT22;13877;18.896;-99.222;2022-10-17T02:51:23;23.10;76.40
12413;DHT22;13877;18.896;-99.222;2022-10-17T02:59:35;23.00;76.60
12413;DHT22;13877;18.896;-99.222;2022-10-17T03:02:04;23.00;75.80
12413;DHT22;13877;18.896;-99.222;2022-10-17T03:04:32;23.10;76.10
12413;DHT22;13877;18.896;-99.222;2022-10-17T03:06:59;23.00;76.30
12413;DHT22;13877;18.896;-99.222;2022-10-17T03:09:26;23.00;76.40
12413;DHT22;13877;18.896;-99.222;2022-10-17T03:11:53;23.00;75.80
12413;DHT22;13877;18.896;-99.222;2022-10-17T03:14:21;23.20;75.30
12413;DHT22;13877;18.896;-99.222;2022-10-17T03:16:47;23.30;74.40
12413;DHT22;13877;18.896;-99.222;2022-10-17T03:19:17;23.40;74.70
12413;DHT22;13877;18.896;-99.222;2022-10-17T03:21:44;23.50;74.10
12413;DHT22;13877;18.896;-99.222;2022-10-17T03:24:11;23.60;73.60
12413;DHT22;13877;18.896;-99.222;2022-10-17T03:26:38;23.60;73.10
12413;DHT22;13877;18.896;-99.222;2022-10-17T03:29:06;23.60;72.90
12413;DHT22;13877;18.896;-99.222;2022-10-17T03:31:35;23.60;73.40
12413;DHT22;13877;18.896;-99.222;2022-10-17T03:34:04;23.60;72.80
12413;DHT22;13877;18.896;-99.222;2022-10-17T03:36:31;23.50;72.70
12413;DHT22;13877;18.896;-99.222;2022-10-17T03:39:00;23.40;73.00
12413;DHT22;13877;18.896;-99.222;2022-10-17T03:41:27;23.30;73.30
12413;DHT22;13877;18.896;-99.222;2022-10-17T03:43:54;23.30;75.30
12413;DHT22;13877;18.896;-99.222;2022-10-17T03:46:22;23.20;74.80
12413;DHT22;13877;18.896;-99.222;2022-10-17T03:48:50;23.20;74.40
12413;DHT22;13877;18.896;-99.222;2022-10-17T03:51:17;23.20;73.90
12413;DHT22;13877;18.896;-99.222;2022-10-17T03:53:49;23.20;74.30
12413;DHT22;13877;18.896;-99.222;2022-10-17T03:56:24;23.00;74.80
12413;DHT22;13877;18.896;-99.222;2022-10-17T03:58:58;23.00;74.80
12413;DHT22;13877;18.896;-99.222;2022-10-17T04:01:27;23.00;74.90
12413;DHT22;13877;18.896;-99.222;2022-10-17T04:03:55;23.10;74.60
12413;DHT22;13877;18.896;-99.222;2022-10-17T04:06:26;23.00;75.90
12413;DHT22;13877;18.896;-99.222;2022-10-17T04:08:53;23.10;75.60
12413;DHT22;13877;18.896;-99.222;2022-10-17T04:11:25;23.20;75.40
12413;DHT22;13877;18.896;-99.222;2022-10-17T04:13:58;23.00;76.10
12413;DHT22;13877;18.896;-99.222;2022-10-17T04:16:26;22.80;76.40
12413;DHT22;13877;18.896;-99.222;2022-10-17T04:19:00;22.70;76.10
12413;DHT22;13877;18.896;-99.222;2022-10-17T04:21:33;22.70;75.30
12413;DHT22;13877;18.896;-99.222;2022-10-17T04:24:05;22.70;75.10
12413;DHT22;13877;18.896;-99.222;2022-10-17T04:26:43;22.60;75.00
12413;DHT22;13877;18.896;-99.222;2022-10-17T04:29:10;22.60;74.70
12413;DHT22;13877;18.896;-99.222;2022-10-17T04:31:38;22.60;74.90
12413;DHT22;13877;18.896;-99.222;2022-10-17T04:34:27;22.60;74.60
12413;DHT22;13877;18.896;-99.222;2022-10-17T04:36:54;22.70;74.40
12413;DHT22;13877;18.896;-99.222;2022-10-17T04:39:21;22.70;73.90
12413;DHT22;13877;18.896;-99.222;2022-10-17T04:41:49;22.80;73.40
12413;DHT22;13877;18.896;-99.222;2022-10-17T04:44:16;22.90;73.50
12413;DHT22;13877;18.896;-99.222;2022-10-17T04:46:48;22.90;73.70
12413;DHT22;13877;18.896;-99.222;2022-10-17T04:49:16;22.80;73.90
12413;DHT22;13877;18.896;-99.222;2022-10-17T04:51:46;22.80;74.00
12413;DHT22;13877;18.896;-99.222;2022-10-17T04:54:19;22.90;74.20
12413;DHT22;13877;18.896;-99.222;2022-10-17T04:56:52;22.80;75.80
12413;DHT22;13877;18.896;-99.222;2022-10-17T04:59:19;22.50;76.40
12413;DHT22;13877;18.896;-99.222;2022-10-17T05:01:50;22.30;77.30
12413;DHT22;13877;18.896;-99.222;2022-10-17T05:04:18;22.10;77.80
12413;DHT22;13877;18.896;-99.222;2022-10-17T05:06:44;22.10;78.80
12413;DHT22;13877;18.896;-99.222;2022-10-17T05:09:37;22.20;80.30
12413;DHT22;13877;18.896;-99.222;2022-10-17T05:12:05;22.50;79.90
12413;DHT22;13877;18.896;-99.222;2022-10-17T05:14:32;22.60;80.30
12413;DHT22;13877;18.896;-99.222;2022-10-17T05:16:59;22.60;80.40
12413;DHT22;13877;18.896;-99.222;2022-10-17T05:19:28;22.70;80.80
12413;DHT22;13877;18.896;-99.222;2022-10-17T05:21:55;22.60;81.40
12413;DHT22;13877;18.896;-99.222;2022-10-17T05:24:22;22.70;81.70
12413;DHT22;13877;18.896;-99.222;2022-10-17T05:26:52;22.70;82.10
12413;DHT22;13877;18.896;-99.222;2022-10-17T05:29:18;22.60;82.80
12413;DHT22;13877;18.896;-99.222;2022-10-17T05:31:51;22.50;83.50
12413;DHT22;13877;18.896;-99.222;2022-10-17T05:34:19;22.30;84.00
12413;DHT22;13877;18.896;-99.222;2022-10-17T05:36:46;22.30;83.60
12413;DHT22;13877;18.896;-99.222;2022-10-17T05:39:17;22.40;83.60
12413;DHT22;13877;18.896;-99.222;2022-10-17T05:41:46;22.50;83.30
12413;DHT22;13877;18.896;-99.222;2022-10-17T05:44:13;22.50;83.50
12413;DHT22;13877;18.896;-99.222;2022-10-17T05:46:44;22.40;83.00
12413;DHT22;13877;18.896;-99.222;2022-10-17T05:49:14;22.30;84.00
12413;DHT22;13877;18.896;-99.222;2022-10-17T05:51:41;22.00;84.70
12413;DHT22;13877;18.896;-99.222;2022-10-17T05:54:08;21.90;85.80
12413;DHT22;13877;18.896;-99.222;2022-10-17T05:56:35;21.70;86.10
12413;DHT22;13877;18.896;-99.222;2022-10-17T05:59:04;21.60;86.50
12413;DHT22;13877;18.896;-99.222;2022-10-17T06:01:53;21.50;87.70
12413;DHT22;13877;18.896;-99.222;2022-10-17T06:04:21;21.50;88.70
12413;DHT22;13877;18.896;-99.222;2022-10-17T06:06:48;21.60;88.40
12413;DHT22;13877;18.896;-99.222;2022-10-17T06:09:15;21.60;88.70
12413;DHT22;13877;18.896;-99.222;2022-10-17T06:11:46;21.80;88.30
12413;DHT22;13877;18.896;-99.222;2022-10-17T06:14:13;21.80;88.50
12413;DHT22;13877;18.896;-99.222;2022-10-17T06:16:41;21.80;88.60
12413;DHT22;13877;18.896;-99.222;2022-10-17T06:19:09;21.90;88.60
12413;DHT22;13877;18.896;-99.222;2022-10-17T06:21:37;22.00;88.50
12413;DHT22;13877;18.896;-99.222;2022-10-17T06:24:09;22.00;88.60
12413;DHT22;13877;18.896;-99.222;2022-10-17T06:26:39;22.10;88.10
12413;DHT22;13877;18.896;-99.222;2022-10-17T06:29:10;22.00;88.50
12413;DHT22;13877;18.896;-99.222;2022-10-17T06:31:44;21.90;89.00
12413;DHT22;13877;18.896;-99.222;2022-10-17T06:34:11;21.80;88.50
12413;DHT22;13877;18.896;-99.222;2022-10-17T06:36:39;21.90;89.20
12413;DHT22;13877;18.896;-99.222;2022-10-17T06:39:07;21.90;89.30
12413;DHT22;13877;18.896;-99.222;2022-10-17T06:42:03;21.80;89.50
12413;DHT22;13877;18.896;-99.222;2022-10-17T06:44:50;21.70;90.00
12413;DHT22;13877;18.896;-99.222;2022-10-17T06:47:43;21.70;89.80
12413;DHT22;13877;18.896;-99.222;2022-10-17T06:50:45;21.70;90.00
12413;DHT22;13877;18.896;-99.222;2022-10-17T06:53:22;21.60;90.20
12413;DHT22;13877;18.896;-99.222;2022-10-17T06:56:15;21.40;90.40
12413;DHT22;13877;18.896;-99.222;2022-10-17T06:59:00;21.10;91.20
12413;DHT22;13877;18.896;-99.222;2022-10-17T07:01:35;21.00;91.80
12413;DHT22;13877;18.896;-99.222;2022-10-17T07:04:04;20.90;92.20
12413;DHT22;13877;18.896;-99.222;2022-10-17T07:06:31;20.90;92.50
12413;DHT22;13877;18.896;-99.222;2022-10-17T07:09:04;20.90;92.30
12413;DHT22;13877;18.896;-99.222;2022-10-17T07:11:35;20.90;91.10
12413;DHT22;13877;18.896;-99.222;2022-10-17T07:14:02;20.90;91.00
12413;DHT22;13877;18.896;-99.222;2022-10-17T07:16:29;20.80;90.30
12413;DHT22;13877;18.896;-99.222;2022-10-17T07:19:04;20.90;89.10
12413;DHT22;13877;18.896;-99.222;2022-10-17T07:21:35;20.90;88.00
12413;DHT22;13877;18.896;-99.222;2022-10-17T07:24:02;21.00;87.30
12413;DHT22;13877;18.896;-99.222;2022-10-17T07:26:30;21.00;85.40
12413;DHT22;13877;18.896;-99.222;2022-10-17T07:28:56;20.90;84.70
12413;DHT22;13877;18.896;-99.222;2022-10-17T07:31:30;21.00;85.00
12413;DHT22;13877;18.896;-99.222;2022-10-17T07:33:59;21.00;84.50
12413;DHT22;13877;18.896;-99.222;2022-10-17T07:36:26;20.90;84.10
12413;DHT22;13877;18.896;-99.222;2022-10-17T07:38:55;21.00;84.20
12413;DHT22;13877;18.896;-99.222;2022-10-17T07:41:23;21.10;84.10
12413;DHT22;13877;18.896;-99.222;2022-10-17T07:43:51;21.10;84.00
12413;DHT22;13877;18.896;-99.222;2022-10-17T07:46:21;20.90;84.80
12413;DHT22;13877;18.896;-99.222;2022-10-17T07:48:49;20.70;84.50
12413;DHT22;13877;18.896;-99.222;2022-10-17T07:51:19;20.80;84.00
12413;DHT22;13877;18.896;-99.222;2022-10-17T07:53:47;20.70;83.40
12413;DHT22;13877;18.896;-99.222;2022-10-17T07:56:14;20.70;81.40
12413;DHT22;13877;18.896;-99.222;2022-10-17T07:58:42;20.70;82.20
12413;DHT22;13877;18.896;-99.222;2022-10-17T08:01:10;20.70;81.70
12413;DHT22;13877;18.896;-99.222;2022-10-17T08:03:40;20.80;83.00
12413;DHT22;13877;18.896;-99.222;2022-10-17T08:06:08;20.80;83.70
12413;DHT22;13877;18.896;-99.222;2022-10-17T08:08:35;20.70;85.90
12413;DHT22;13877;18.896;-99.222;2022-10-17T08:11:04;20.60;89.30
12413;DHT22;13877;18.896;-99.222;2022-10-17T08:13:32;20.50;90.40
12413;DHT22;13877;18.896;-99.222;2022-10-17T08:16:04;20.30;90.20
12413;DHT22;13877;18.896;-99.222;2022-10-17T08:18:34;20.10;91.00
12413;DHT22;13877;18.896;-99.222;2022-10-17T08:21:03;19.90;92.20
12413;DHT22;13877;18.896;-99.222;2022-10-17T08:23:32;19.90;92.60
12413;DHT22;13877;18.896;-99.222;2022-10-17T08:25:59;19.90;92.80
12413;DHT22;13877;18.896;-99.222;2022-10-17T08:28:26;19.80;92.90
12413;DHT22;13877;18.896;-99.222;2022-10-17T08:31:00;19.80;92.90
12413;DHT22;13877;18.896;-99.222;2022-10-17T08:33:27;19.80;92.30
12413;DHT22;13877;18.896;-99.222;2022-10-17T08:35:56;19.90;91.80
12413;DHT22;13877;18.896;-99.222;2022-10-17T08:38:23;20.00;90.80
12413;DHT22;13877;18.896;-99.222;2022-10-17T08:40:50;20.10;89.10
12413;DHT22;13877;18.896;-99.222;2022-10-17T08:45:54;20.20;85.40
12413;DHT22;13877;18.896;-99.222;2022-10-17T08:48:27;20.20;85.60
12413;DHT22;13877;18.896;-99.222;2022-10-17T08:51:18;20.10;86.20
12413;DHT22;13877;18.896;-99.222;2022-10-17T08:53:56;20.00;86.50
12413;DHT22;13877;18.896;-99.222;2022-10-17T08:56:28;19.90;86.60
12413;DHT22;13877;18.896;-99.222;2022-10-17T08:58:55;19.90;86.80
12413;DHT22;13877;18.896;-99.222;2022-10-17T09:10:09;20.30;83.80
12413;DHT22;13877;18.896;-99.222;2022-10-17T09:18:33;20.40;82.70
12413;DHT22;13877;18.896;-99.222;2022-10-17T09:23:55;20.40;81.70
12413;DHT22;13877;18.896;-99.222;2022-10-17T09:26:24;20.40;81.40
12413;DHT22;13877;18.896;-99.222;2022-10-17T09:28:59;20.50;81.50
12413;DHT22;13877;18.896;-99.222;2022-10-17T09:31:33;20.50;81.70
12413;DHT22;13877;18.896;-99.222;2022-10-17T09:34:02;20.50;82.00
12413;DHT22;13877;18.896;-99.222;2022-10-17T09:36:32;20.40;82.00
12413;DHT22;13877;18.896;-99.222;2022-10-17T09:41:46;20.40;80.40
12413;DHT22;13877;18.896;-99.222;2022-10-17T09:49:32;20.50;79.70
12413;DHT22;13877;18.896;-99.222;2022-10-17T09:52:03;20.40;79.40
12413;DHT22;13877;18.896;-99.222;2022-10-17T09:55:19;20.40;79.20
12413;DHT22;13877;18.896;-99.222;2022-10-17T09:58:01;20.50;81.20
12413;DHT22;13877;18.896;-99.222;2022-10-17T10:00:35;20.30;84.70
12413;DHT22;13877;18.896;-99.222;2022-10-17T10:03:13;20.10;85.50
12413;DHT22;13877;18.896;-99.222;2022-10-17T10:05:55;19.90;86.30
12413;DHT22;13877;18.896;-99.222;2022-10-17T10:08:28;19.60;87.30
12413;DHT22;13877;18.896;-99.222;2022-10-17T10:11:05;19.30;90.00
12413;DHT22;13877;18.896;-99.222;2022-10-17T10:13:33;19.30;90.70
12413;DHT22;13877;18.896;-99.222;2022-10-17T10:16:22;19.20;91.30
12413;DHT22;13877;18.896;-99.222;2022-10-17T10:18:55;19.00;91.90
12413;DHT22;13877;18.896;-99.222;2022-10-17T10:21:26;19.00;92.60
12413;DHT22;13877;18.896;-99.222;2022-10-17T10:24:11;19.00;93.20
12413;DHT22;13877;18.896;-99.222;2022-10-17T10:26:46;19.10;93.40
12413;DHT22;13877;18.896;-99.222;2022-10-17T10:29:27;19.10;93.30
12413;DHT22;13877;18.896;-99.222;2022-10-17T10:32:10;19.10;93.30
12413;DHT22;13877;18.896;-99.222;2022-10-17T10:35:05;19.10;93.30
12413;DHT22;13877;18.896;-99.222;2022-10-17T10:37:38;19.20;93.40
12413;DHT22;13877;18.896;-99.222;2022-10-17T10:40:19;19.20;93.70
12413;DHT22;13877;18.896;-99.222;2022-10-17T10:42:49;19.20;93.70
12413;DHT22;13877;18.896;-99.222;2022-10-17T10:45:24;19.20;93.70
12413;DHT22;13877;18.896;-99.222;2022-10-17T10:48:04;19.20;93.40
12413;DHT22;13877;18.896;-99.222;2022-10-17T10:50:58;19.10;93.60
12413;DHT22;13877;18.896;-99.222;2022-10-17T10:56:17;19.10;93.40
12413;DHT22;13877;18.896;-99.222;2022-10-17T11:06:47;19.30;92.70
12413;DHT22;13877;18.896;-99.222;2022-10-17T11:12:34;19.50;92.50
12413;DHT22;13877;18.896;-99.222;2022-10-17T11:22:48;19.90;90.40
12413;DHT22;13877;18.896;-99.222;2022-10-17T11:25:35;19.90;90.40
12413;DHT22;13877;18.896;-99.222;2022-10-17T11:28:10;19.90;90.80
12413;DHT22;13877;18.896;-99.222;2022-10-17T11:36:25;19.50;92.10
12413;DHT22;13877;18.896;-99.222;2022-10-17T11:41:44;19.70;93.00
12413;DHT22;13877;18.896;-99.222;2022-10-17T11:46:43;19.40;93.10
12413;DHT22;13877;18.896;-99.222;2022-10-17T11:49:31;19.20;94.40
12413;DHT22;13877;18.896;-99.222;2022-10-17T11:52:05;19.00;95.20
12413;DHT22;13877;18.896;-99.222;2022-10-17T11:54:56;18.90;95.70
12413;DHT22;13877;18.896;-99.222;2022-10-17T11:58:02;18.70;96.00
12413;DHT22;13877;18.896;-99.222;2022-10-17T12:08:57;18.80;98.00
12413;DHT22;13877;18.896;-99.222;2022-10-17T12:14:38;19.10;97.60
12413;DHT22;13877;18.896;-99.222;2022-10-17T12:17:33;19.10;97.30
12413;DHT22;13877;18.896;-99.222;2022-10-17T12:25:22;19.00;97.70
12413;DHT22;13877;18.896;-99.222;2022-10-17T12:28:09;19.00;98.30
12413;DHT22;13877;18.896;-99.222;2022-10-17T12:31:06;19.00;98.50
12413;DHT22;13877;18.896;-99.222;2022-10-17T12:33:58;19.10;98.70
12413;DHT22;13877;18.896;-99.222;2022-10-17T12:52:21;18.60;99.90
12413;DHT22;13877;18.896;-99.222;2022-10-17T12:58:05;18.70;99.90
12413;DHT22;13877;18.896;-99.222;2022-10-17T13:03:14;19.30;99.90
12413;DHT22;13877;18.896;-99.222;2022-10-17T13:05:56;19.50;99.90
12413;DHT22;13877;18.896;-99.222;2022-10-17T13:08:30;19.60;99.90
12413;DHT22;13877;18.896;-99.222;2022-10-17T13:10:59;19.70;99.90
12413;DHT22;13877;18.896;-99.222;2022-10-17T13:13:48;19.90;99.80
12413;DHT22;13877;18.896;-99.222;2022-10-17T13:16:34;20.00;99.30
12413;DHT22;13877;18.896;-99.222;2022-10-17T13:19:14;20.10;99.30
12413;DHT22;13877;18.896;-99.222;2022-10-17T13:24:33;20.20;98.80
12413;DHT22;13877;18.896;-99.222;2022-10-17T13:27:01;20.40;98.60
12413;DHT22;13877;18.896;-99.222;2022-10-17T13:29:28;20.60;98.30
12413;DHT22;13877;18.896;-99.222;2022-10-17T13:31:59;20.70;97.90
12413;DHT22;13877;18.896;-99.222;2022-10-17T13:34:27;20.90;97.70
12413;DHT22;13877;18.896;-99.222;2022-10-17T13:36:57;21.00;97.60
12413;DHT22;13877;18.896;-99.222;2022-10-17T13:39:42;21.00;97.00
12413;DHT22;13877;18.896;-99.222;2022-10-17T13:42:26;21.10;96.30
12413;DHT22;13877;18.896;-99.222;2022-10-17T13:44:54;21.30;95.70
12413;DHT22;13877;18.896;-99.222;2022-10-17T13:47:31;21.30;95.50
12413;DHT22;13877;18.896;-99.222;2022-10-17T13:49:59;21.40;95.30
12413;DHT22;13877;18.896;-99.222;2022-10-17T13:52:28;21.50;95.40
12413;DHT22;13877;18.896;-99.222;2022-10-17T13:55:07;21.70;95.20
12413;DHT22;13877;18.896;-99.222;2022-10-17T13:57:36;21.80;95.10
12413;DHT22;13877;18.896;-99.222;2022-10-17T14:00:10;21.70;94.90
12413;DHT22;13877;18.896;-99.222;2022-10-17T14:02:42;21.80;94.90
12413;DHT22;13877;18.896;-99.222;2022-10-17T14:05:16;21.70;94.70
12413;DHT22;13877;18.896;-99.222;2022-10-17T14:08:02;21.70;94.80
12413;DHT22;13877;18.896;-99.222;2022-10-17T14:10:35;21.70;94.40
12413;DHT22;13877;18.896;-99.222;2022-10-17T14:13:04;21.90;94.70
12413;DHT22;13877;18.896;-99.222;2022-10-17T14:15:35;22.00;94.60
12413;DHT22;13877;18.896;-99.222;2022-10-17T14:18:07;22.20;94.20
12413;DHT22;13877;18.896;-99.222;2022-10-17T14:20:35;22.50;94.50
12413;DHT22;13877;18.896;-99.222;2022-10-17T14:23:02;22.70;93.40
12413;DHT22;13877;18.896;-99.222;2022-10-17T14:28:12;22.90;92.90
12413;DHT22;13877;18.896;-99.222;2022-10-17T14:30:52;23.30;94.40
12413;DHT22;13877;18.896;-99.222;2022-10-17T14:33:30;23.50;91.60
12413;DHT22;13877;18.896;-99.222;2022-10-17T14:36:00;23.80;91.80
12413;DHT22;13877;18.896;-99.222;2022-10-17T14:38:28;23.40;90.80
12413;DHT22;13877;18.896;-99.222;2022-10-17T14:41:04;23.30;90.60
12413;DHT22;13877;18.896;-99.222;2022-10-17T14:43:32;23.50;91.40
12413;DHT22;13877;18.896;-99.222;2022-10-17T14:46:00;23.50;91.00
12413;DHT22;13877;18.896;-99.222;2022-10-17T14:48:29;23.30;90.40
12413;DHT22;13877;18.896;-99.222;2022-10-17T14:53:40;23.60;90.60
12413;DHT22;13877;18.896;-99.222;2022-10-17T14:56:23;23.80;90.20
12413;DHT22;13877;18.896;-99.222;2022-10-17T14:58:51;23.90;88.30
12413;DHT22;13877;18.896;-99.222;2022-10-17T15:01:19;23.90;87.90
12413;DHT22;13877;18.896;-99.222;2022-10-17T15:03:46;23.70;86.20
12413;DHT22;13877;18.896;-99.222;2022-10-17T15:06:33;23.70;86.50
12413;DHT22;13877;18.896;-99.222;2022-10-17T15:09:00;23.60;85.60
12413;DHT22;13877;18.896;-99.222;2022-10-17T15:11:28;24.00;86.80
12413;DHT22;13877;18.896;-99.222;2022-10-17T15:13:55;24.10;84.40
12413;DHT22;13877;18.896;-99.222;2022-10-17T15:16:29;24.40;83.90
12413;DHT22;13877;18.896;-99.222;2022-10-17T15:18:56;24.30;85.80
12413;DHT22;13877;18.896;-99.222;2022-10-17T15:21:24;24.30;82.20
12413;DHT22;13877;18.896;-99.222;2022-10-17T15:23:53;24.70;81.20
12413;DHT22;13877;18.896;-99.222;2022-10-17T15:26:30;24.70;80.70
12413;DHT22;13877;18.896;-99.222;2022-10-17T15:28:58;25.20;81.90
12413;DHT22;13877;18.896;-99.222;2022-10-17T15:31:27;25.40;79.50
12413;DHT22;13877;18.896;-99.222;2022-10-17T15:33:55;25.70;79.90
12413;DHT22;13877;18.896;-99.222;2022-10-17T15:36:24;25.90;79.20
12413;DHT22;13877;18.896;-99.222;2022-10-17T15:38:54;26.70;75.10
12413;DHT22;13877;18.896;-99.222;2022-10-17T15:41:23;27.00;71.50
12413;DHT22;13877;18.896;-99.222;2022-10-17T15:43:50;26.50;72.30
12413;DHT22;13877;18.896;-99.222;2022-10-17T15:46:23;26.50;71.50
12413;DHT22;13877;18.896;-99.222;2022-10-17T15:48:52;26.50;72.30
12413;DHT22;13877;18.896;-99.222;2022-10-17T15:51:19;26.40;73.60
12413;DHT22;13877;18.896;-99.222;2022-10-17T15:53:46;26.10;74.50
12413;DHT22;13877;18.896;-99.222;2022-10-17T15:56:23;25.60;74.00
12413;DHT22;13877;18.896;-99.222;2022-10-17T15:58:51;26.20;72.60
12413;DHT22;13877;18.896;-99.222;2022-10-17T16:01:24;26.50;71.70
12413;DHT22;13877;18.896;-99.222;2022-10-17T16:03:52;26.00;74.40
12413;DHT22;13877;18.896;-99.222;2022-10-17T16:06:20;26.30;77.10
12413;DHT22;13877;18.896;-99.222;2022-10-17T16:08:48;26.60;71.70
12413;DHT22;13877;18.896;-99.222;2022-10-17T16:11:33;27.00;70.40
12413;DHT22;13877;18.896;-99.222;2022-10-17T16:14:04;27.10;71.90
12413;DHT22;13877;18.896;-99.222;2022-10-17T16:16:32;26.70;71.90
12413;DHT22;13877;18.896;-99.222;2022-10-17T16:18:59;27.10;70.10
12413;DHT22;13877;18.896;-99.222;2022-10-17T16:21:29;26.70;70.70
12413;DHT22;13877;18.896;-99.222;2022-10-17T16:23:57;26.80;68.80
12413;DHT22;13877;18.896;-99.222;2022-10-17T16:26:24;26.80;69.80
12413;DHT22;13877;18.896;-99.222;2022-10-17T16:28:51;26.70;70.90
12413;DHT22;13877;18.896;-99.222;2022-10-17T16:31:27;26.70;70.80
12413;DHT22;13877;18.896;-99.222;2022-10-17T16:33:57;26.70;69.50
12413;DHT22;13877;18.896;-99.222;2022-10-17T16:36:24;27.00;68.50
12413;DHT22;13877;18.896;-99.222;2022-10-17T16:38:51;27.50;68.60
12413;DHT22;13877;18.896;-99.222;2022-10-17T16:41:26;27.10;69.70
12413;DHT22;13877;18.896;-99.222;2022-10-17T16:43:55;27.20;68.80
12413;DHT22;13877;18.896;-99.222;2022-10-17T16:46:23;28.30;66.20
12413;DHT22;13877;18.896;-99.222;2022-10-17T16:48:51;28.80;71.30
12413;DHT22;13877;18.896;-99.222;2022-10-17T16:51:18;28.30;65.80
12413;DHT22;13877;18.896;-99.222;2022-10-17T16:53:50;28.20;65.10
12413;DHT22;13877;18.896;-99.222;2022-10-17T16:56:20;29.00;64.00
12413;DHT22;13877;18.896;-99.222;2022-10-17T16:58:48;29.70;63.40
12413;DHT22;13877;18.896;-99.222;2022-10-17T17:01:18;28.90;64.50
12413;DHT22;13877;18.896;-99.222;2022-10-17T17:03:46;29.10;65.40
12413;DHT22;13877;18.896;-99.222;2022-10-17T17:06:22;27.60;68.60
12413;DHT22;13877;18.896;-99.222;2022-10-17T17:08:50;27.60;66.40
12413;DHT22;13877;18.896;-99.222;2022-10-17T17:11:19;28.10;68.30
12413;DHT22;13877;18.896;-99.222;2022-10-17T17:13:47;28.80;63.20
12413;DHT22;13877;18.896;-99.222;2022-10-17T17:16:17;28.60;62.30
12413;DHT22;13877;18.896;-99.222;2022-10-17T17:18:44;28.60;65.50
12413;DHT22;13877;18.896;-99.222;2022-10-17T17:21:12;27.60;67.90
12413;DHT22;13877;18.896;-99.222;2022-10-17T17:23:41;27.70;65.90
12413;DHT22;13877;18.896;-99.222;2022-10-17T17:26:13;27.90;66.70
12413;DHT22;13877;18.896;-99.222;2022-10-17T17:28:41;28.30;64.80
12413;DHT22;13877;18.896;-99.222;2022-10-17T17:31:11;28.80;65.10
12413;DHT22;13877;18.896;-99.222;2022-10-17T17:33:40;28.80;66.00
12413;DHT22;13877;18.896;-99.222;2022-10-17T17:36:09;28.50;67.30
12413;DHT22;13877;18.896;-99.222;2022-10-17T17:38:38;28.40;67.60
12413;DHT22;13877;18.896;-99.222;2022-10-17T17:41:07;27.90;68.00
12413;DHT22;13877;18.896;-99.222;2022-10-17T17:43:37;28.10;69.20
12413;DHT22;13877;18.896;-99.222;2022-10-17T17:46:04;28.50;66.20
12413;DHT22;13877;18.896;-99.222;2022-10-17T17:48:31;28.00;67.40
12413;DHT22;13877;18.896;-99.222;2022-10-17T17:51:06;28.10;68.60
12413;DHT22;13877;18.896;-99.222;2022-10-17T17:53:34;28.20;72.90
12413;DHT22;13877;18.896;-99.222;2022-10-17T17:56:07;28.80;66.70
12413;DHT22;13877;18.896;-99.222;2022-10-17T17:58:35;29.10;66.50
12413;DHT22;13877;18.896;-99.222;2022-10-17T18:01:11;29.70;66.10